Time;durP1;ratioP1;P1;durP2;ratioP2;P2;SDS_P1;SDS_P2;PMS_P1;PMS_P2;Temp;Humidity;BMP_temperature;BMP_pressure;BME280_temperature;BME280_humidity;BME280_pressure;Samples;Min_cycle;Max_cycle;Signal;HPM_P1;HPM_P2
2024/01/13 00:01:12;;;;;;;14.35;10.90;;;;;;;2.58;100.00;102908.91;5022174;28;20046;-75
2024/01/13 00:03:39;;;;;;;16.85;11.30;;;;;;;2.58;100.00;102914.19;5022392;28;20052;-75
2024/01/13 00:06:06;;;;;;;15.43;10.73;;;;;;;2.59;100.00;102913.84;5022880;28;20062;-76
2024/01/13 00:08:33;;;;;;;13.88;10.40;;;;;;;2.56;100.00;102911.88;5021224;28;20102;-76
2024/01/13 00:11:04;;;;;;;13.85;10.50;;;;;;;2.58;100.00;102912.31;5023409;28;20129;-76
2024/01/13 00:13:31;;;;;;;13.30;10.02;;;;;;;2.57;100.00;102900.25;5019945;28;20058;-76
2024/01/13 00:15:57;;;;;;;14.20;9.98;;;;;;;2.57;100.00;102896.88;5021087;28;20050;-76
2024/01/13 00:18:24;;;;;;;16.05;10.02;;;;;;;2.56;100.00;102890.84;5020671;28;20553;-76
2024/01/13 00:21:05;;;;;;;14.38;9.13;;;;;;;2.57;100.00;102891.59;5021199;28;20046;-76
2024/01/13 00:23:32;;;;;;;16.08;9.25;;;;;;;2.55;100.00;102899.06;5020328;28;20043;-76
2024/01/13 00:25:59;;;;;;;13.15;8.98;;;;;;;2.55;100.00;102894.56;5022090;28;20046;-76
2024/01/13 00:28:25;;;;;;;14.35;9.82;;;;;;;2.55;100.00;102891.94;5014005;28;20572;-76
2024/01/13 00:31:04;;;;;;;11.07;8.77;;;;;;;2.56;100.00;102890.84;5018793;28;20046;-76
2024/01/13 00:33:31;;;;;;;12.18;9.35;;;;;;;2.58;100.00;102880.00;5016641;28;20112;-76
2024/01/13 00:35:59;;;;;;;19.25;11.93;;;;;;;2.59;100.00;102878.91;5023358;28;20074;-76
2024/01/13 00:38:25;;;;;;;16.88;10.95;;;;;;;2.61;100.00;102871.44;5022336;28;20052;-76
2024/01/13 00:41:03;;;;;;;12.27;8.93;;;;;;;2.61;100.00;102863.56;5018853;28;20088;-76
2024/01/13 00:43:31;;;;;;;11.02;8.00;;;;;;;2.60;100.00;102854.13;5023693;28;20141;-76
2024/01/13 00:45:57;;;;;;;14.27;8.30;;;;;;;2.58;100.00;102854.47;5025966;28;20066;-76
2024/01/13 00:48:24;;;;;;;14.10;8.00;;;;;;;2.58;100.00;102849.19;5022686;28;20133;-76
2024/01/13 00:51:07;;;;;;;14.43;7.20;;;;;;;2.59;100.00;102844.72;5023893;28;20038;-76
2024/01/13 00:53:34;;;;;;;9.90;6.80;;;;;;;2.59;100.00;102842.06;5019476;28;20043;-76
2024/01/13 00:56:00;;;;;;;9.10;6.10;;;;;;;2.59;100.00;102837.59;5023352;28;20529;-76
2024/01/13 00:58:27;;;;;;;8.23;6.47;;;;;;;2.60;100.00;102833.09;5018960;28;20045;-76
2024/01/13 01:01:07;;;;;;;8.43;5.80;;;;;;;2.59;100.00;102840.22;5021262;28;20144;-76
2024/01/13 01:03:34;;;;;;;7.30;5.97;;;;;;;2.60;100.00;102838.34;5025312;28;20039;-77
2024/01/13 01:06:01;;;;;;;9.57;6.28;;;;;;;2.59;100.00;102834.97;5026110;28;20077;-77
2024/01/13 01:08:28;;;;;;;6.30;5.43;;;;;;;2.59;100.00;102832.31;5024048;28;20052;-76
2024/01/13 01:11:05;;;;;;;6.28;5.65;;;;;;;2.59;100.00;102823.66;5019617;28;20050;-77
2024/01/13 01:13:32;;;;;;;8.55;5.25;;;;;;;2.58;100.00;102832.66;5020957;28;20034;-76
2024/01/13 01:15:58;;;;;;;5.32;4.82;;;;;;;2.59;100.00;102828.94;5016153;28;20077;-77
2024/01/13 01:18:25;;;;;;;5.78;5.18;;;;;;;2.59;100.00;102829.69;5023348;28;20046;-77
2024/01/13 01:21:09;;;;;;;7.45;4.82;;;;;;;2.61;100.00;102829.38;5020798;28;20488;-77
2024/01/13 01:23:36;;;;;;;5.78;5.28;;;;;;;2.62;100.00;102830.91;5023139;28;20042;-77
2024/01/13 01:26:02;;;;;;;5.68;5.05;;;;;;;2.63;100.00;102827.16;5020685;28;20041;-76
2024/01/13 01:28:29;;;;;;;6.05;5.45;;;;;;;2.62;100.00;102820.38;5026123;28;20046;-77
2024/01/13 01:31:02;;;;;;;8.70;4.95;;;;;;;2.63;100.00;102820.03;5019743;28;20125;-77
2024/01/13 01:33:29;;;;;;;5.93;5.32;;;;;;;2.63;100.00;102816.66;5019758;28;20086;-76
2024/01/13 01:35:56;;;;;;;7.13;5.53;;;;;;;2.64;100.00;102813.69;5023057;28;20043;-77
2024/01/13 01:38:22;;;;;;;6.32;5.72;;;;;;;2.64;100.00;102805.81;5019075;28;20778;-76
2024/01/13 01:41:07;;;;;;;5.57;4.95;;;;;;;2.64;100.00;102810.28;5021724;28;20527;-76
2024/01/13 01:43:34;;;;;;;5.97;5.35;;;;;;;2.63;100.00;102806.91;5023025;28;20101;-76
2024/01/13 01:46:03;;;;;;;5.95;5.13;;;;;;;2.63;100.00;102803.50;5025562;28;20050;-77
2024/01/13 01:48:36;;;;;;;6.32;5.72;;;;;;;2.63;100.00;102809.53;5012837;28;20057;-76
2024/01/13 01:51:09;;;;;;;6.15;5.55;;;;;;;2.63;100.00;102816.66;5021897;28;20038;-76
2024/01/13 01:53:37;;;;;;;8.55;5.93;;;;;;;2.63;100.00;102808.75;5025946;28;20073;-76
2024/01/13 01:56:10;;;;;;;6.00;5.43;;;;;;;2.62;100.00;102805.38;5023490;28;20046;-76
2024/01/13 01:58:38;;;;;;;7.80;5.78;;;;;;;2.62;100.00;102804.59;5019948;28;20053;-76
2024/01/13 02:01:07;;;;;;;8.93;5.75;;;;;;;2.60;100.00;102791.78;5022452;28;20581;-76
2024/01/13 02:03:34;;;;;;;9.05;6.43;;;;;;;2.61;100.00;102784.66;5015222;28;20125;-76
2024/01/13 02:06:02;;;;;;;6.80;6.10;;;;;;;2.61;100.00;102776.78;5025580;28;20049;-76
2024/01/13 02:08:29;;;;;;;6.97;6.05;;;;;;;2.61;100.00;102788.06;5017927;28;20109;-76
2024/01/13 02:11:06;;;;;;;7.10;6.20;;;;;;;2.61;100.00;102774.91;5020769;28;20045;-76
2024/01/13 02:13:33;;;;;;;9.23;6.32;;;;;;;2.62;100.00;102781.69;5016551;28;20042;-76
2024/01/13 02:16:00;;;;;;;7.40;6.47;;;;;;;2.60;100.00;102768.13;5025846;28;20066;-76
2024/01/13 02:18:26;;;;;;;7.47;6.47;;;;;;;2.60;100.00;102769.97;5019190;28;20053;-76
2024/01/13 02:21:05;;;;;;;7.88;6.50;;;;;;;2.62;100.00;102759.91;5019366;28;20045;-77
2024/01/13 02:23:33;;;;;;;10.15;6.38;;;;;;;2.63;100.00;102753.53;5016654;28;20129;-77
2024/01/13 02:26:00;;;;;;;7.32;6.55;;;;;;;2.64;100.00;102758.47;5019522;28;20042;-77
2024/01/13 02:28:26;;;;;;;7.88;6.35;;;;;;;2.64;100.00;102755.06;5023997;28;20046;-76
2024/01/13 02:31:10;;;;;;;9.88;6.03;;;;;;;2.62;100.00;102744.88;5020724;28;20932;-77
2024/01/13 02:33:36;;;;;;;8.40;6.82;;;;;;;2.62;100.00;102741.50;5019820;28;20141;-77
2024/01/13 02:36:04;;;;;;;9.15;6.50;;;;;;;2.61;100.00;102745.97;5021462;28;20038;-77
2024/01/13 02:38:30;;;;;;;6.57;5.78;;;;;;;2.59;100.00;102737.66;5020708;28;20042;-76
2024/01/13 02:41:04;;;;;;;6.43;5.82;;;;;;;2.59;100.00;102736.91;5018874;28;20043;-76
2024/01/13 02:43:30;;;;;;;8.75;5.60;;;;;;;2.56;100.00;102725.19;5024197;28;20041;-76
2024/01/13 02:45:57;;;;;;;7.93;6.13;;;;;;;2.56;100.00;102732.31;5019701;28;20078;-76
2024/01/13 02:48:24;;;;;;;9.18;6.78;;;;;;;2.56;100.00;102733.06;5019814;28;20515;-76
2024/01/13 02:51:06;;;;;;;7.13;6.13;;;;;;;2.55;100.00;102725.53;5019336;28;20054;-76
2024/01/13 02:53:33;;;;;;;8.25;6.35;;;;;;;2.57;100.00;102712.81;5019670;28;20081;-76
2024/01/13 02:55:59;;;;;;;6.50;5.90;;;;;;;2.55;100.00;102710.50;5020593;28;20490;-76
2024/01/13 02:58:26;;;;;;;9.57;6.70;;;;;;;2.54;100.00;102693.22;5024147;28;20568;-77
2024/01/13 03:01:07;;;;;;;8.13;6.93;;;;;;;2.56;100.00;102691.00;5018556;28;20539;-77
2024/01/13 03:03:34;;;;;;;10.70;8.07;;;;;;;2.56;100.00;102687.59;5010753;28;20057;-76
2024/01/13 03:06:03;;;;;;;9.88;7.75;;;;;;;2.55;100.00;102686.09;5022538;28;20077;-76
2024/01/13 03:08:31;;;;;;;9.88;7.80;;;;;;;2.57;100.00;102676.00;5022402;28;20485;-76
2024/01/13 03:11:11;;;;;;;9.05;7.82;;;;;;;2.57;100.00;102679.38;5018162;28;20042;-77
2024/01/13 03:13:38;;;;;;;10.80;8.52;;;;;;;2.57;100.00;102676.00;5017596;28;20082;-77
2024/01/13 03:16:08;;;;;;;10.80;8.38;;;;;;;2.56;100.00;102674.47;5025658;28;20125;-77
2024/01/13 03:18:35;;;;;;;13.18;8.40;;;;;;;2.55;100.00;102665.81;5022459;28;20534;-77
2024/01/13 03:21:11;;;;;;;13.60;9.40;;;;;;;2.56;100.00;102669.22;5022053;28;20528;-77
2024/01/13 03:23:42;;;;;;;12.95;9.55;;;;;;;2.57;100.00;102668.09;5020716;28;20486;-77
2024/01/13 03:26:09;;;;;;;13.85;9.35;;;;;;;2.56;100.00;102662.09;5017730;28;20051;-76
2024/01/13 03:28:36;;;;;;;12.95;9.57;;;;;;;2.55;100.00;102657.91;5017331;28;20414;-76
2024/01/13 03:31:13;;;;;;;13.35;9.85;;;;;;;2.56;100.00;102654.19;5021169;28;20536;-76
2024/01/13 03:33:43;;;;;;;16.00;10.30;;;;;;;2.56;100.00;102653.44;5013347;28;20083;-76
2024/01/13 03:36:10;;;;;;;15.93;10.15;;;;;;;2.56;100.00;102641.03;5018385;28;20045;-76
2024/01/13 03:38:39;;;;;;;16.35;10.63;;;;;;;2.55;100.00;102644.78;5014725;28;20113;-76
2024/01/13 03:41:11;;;;;;;15.32;10.35;;;;;;;2.57;100.00;102637.31;5014811;28;20038;-76
2024/01/13 03:43:38;;;;;;;19.50;10.85;;;;;;;2.55;100.00;102630.88;5015876;28;20538;-76
2024/01/13 03:46:05;;;;;;;13.88;9.43;;;;;;;2.56;100.00;102625.28;5021193;28;20537;-76
2024/01/13 03:48:32;;;;;;;16.42;10.55;;;;;;;2.54;100.00;102634.59;5019383;28;20129;-76
2024/01/13 03:50:59;;;;;;;17.95;10.90;;;;;;;2.55;100.00;102636.88;5019724;28;20129;-76
2024/01/13 03:53:31;;;;;;;17.10;11.77;;;;;;;2.57;100.00;102633.91;5019212;28;20498;-76
2024/01/13 03:55:58;;;;;;;18.70;10.55;;;;;;;2.58;100.00;102623.06;5022227;28;20038;-76
2024/01/13 03:58:24;;;;;;;16.98;11.68;;;;;;;2.59;100.00;102631.72;5018703;28;20047;-76
2024/01/13 04:00:51;;;;;;;17.52;10.57;;;;;;;2.59;100.00;102632.47;5014364;28;20050;-76
2024/01/13 04:03:20;;;;;;;19.38;12.02;;;;;;;2.60;100.00;102630.63;5020308;28;20046;-76
2024/01/13 04:05:47;;;;;;;18.38;10.85;;;;;;;2.61;100.00;102621.63;5024408;28;20522;-76
2024/01/13 04:08:14;;;;;;;20.13;12.52;;;;;;;2.61;100.00;102616.38;5020581;28;20053;-76
2024/01/13 04:10:40;;;;;;;15.82;11.18;;;;;;;2.61;100.00;102619.00;5027255;28;20552;-76
2024/01/13 04:13:12;;;;;;;16.75;11.35;;;;;;;2.60;100.00;102615.59;5023813;28;20848;-76
2024/01/13 04:15:38;;;;;;;20.58;12.02;;;;;;;2.60;100.00;102606.94;5022686;28;20050;-77
2024/01/13 04:18:05;;;;;;;19.17;11.23;;;;;;;2.59;100.00;102600.94;5026209;28;20053;-76
2024/01/13 04:20:32;;;;;;;18.90;11.60;;;;;;;2.58;100.00;102588.88;5024144;28;20053;-76
2024/01/13 04:22:59;;;;;;;15.98;11.40;;;;;;;2.59;100.00;102592.28;5022763;28;20046;-76
2024/01/13 04:25:26;;;;;;;17.10;10.75;;;;;;;2.59;100.00;102587.78;5022344;28;20078;-76
2024/01/13 04:27:54;;;;;;;17.85;11.65;;;;;;;2.58;100.00;102586.25;5018379;28;20052;-76
2024/01/13 04:30:21;;;;;;;19.85;11.10;;;;;;;2.61;100.00;102592.69;5024482;28;20096;-76
2024/01/13 04:32:47;;;;;;;15.98;10.52;;;;;;;2.61;100.00;102596.09;5020537;28;20050;-76
2024/01/13 04:35:15;;;;;;;15.60;10.15;;;;;;;2.59;100.00;102598.31;5020407;28;20056;-76
2024/01/13 04:37:42;;;;;;;17.27;9.95;;;;;;;2.59;100.00;102597.53;5021963;28;20050;-76
2024/01/13 04:40:08;;;;;;;14.23;9.65;;;;;;;2.58;100.00;102590.75;5025658;28;20113;-76
2024/01/13 04:42:35;;;;;;;13.63;9.07;;;;;;;2.58;100.00;102596.78;5025820;28;20552;-76
2024/01/13 04:45:02;;;;;;;16.77;9.38;;;;;;;2.59;100.00;102587.03;5018994;28;20053;-76
2024/01/13 04:47:29;;;;;;;14.90;9.00;;;;;;;2.57;100.00;102586.59;5019698;28;20887;-76
2024/01/13 04:49:56;;;;;;;13.35;8.27;;;;;;;2.55;100.00;102584.31;5021828;28;20050;-76
2024/01/13 04:52:22;;;;;;;14.63;9.55;;;;;;;2.55;100.00;102581.69;5025757;28;20543;-76
2024/01/13 04:54:49;;;;;;;13.93;8.43;;;;;;;2.55;100.00;102579.03;5021543;28;20116;-76
2024/01/13 04:57:15;;;;;;;13.98;9.05;;;;;;;2.55;100.00;102578.28;5019018;28;20050;-76
2024/01/13 04:59:44;;;;;;;15.35;9.15;;;;;;;2.55;100.00;102568.53;5026554;28;20133;-76
2024/01/13 05:02:11;;;;;;;13.57;8.70;;;;;;;2.57;100.00;102576.06;5025495;28;20137;-76
2024/01/13 05:04:39;;;;;;;14.13;8.50;;;;;;;2.58;100.00;102572.34;5023114;28;20122;-76
2024/01/13 05:07:07;;;;;;;15.13;8.32;;;;;;;2.57;100.00;102576.84;5019431;28;20050;-76
2024/01/13 05:09:34;;;;;;;13.73;8.48;;;;;;;2.58;100.00;102574.97;5021251;28;20050;-77
2024/01/13 05:12:01;;;;;;;12.90;8.25;;;;;;;2.57;100.00;102587.34;5024527;28;20478;-77
2024/01/13 05:14:27;;;;;;;10.30;7.43;;;;;;;2.58;100.00;102585.50;5023512;28;20050;-77
2024/01/13 05:16:54;;;;;;;12.68;7.88;;;;;;;2.58;100.00;102586.25;5026425;28;20077;-77
2024/01/13 05:19:20;;;;;;;10.75;7.55;;;;;;;2.59;100.00;102584.38;5022482;28;20101;-78
2024/01/13 05:21:47;;;;;;;11.57;7.20;;;;;;;2.60;100.00;102593.81;5023792;28;20041;-77
2024/01/13 05:24:14;;;;;;;12.20;6.07;;;;;;;2.60;100.00;102586.69;5020571;28;20046;-77
2024/01/13 05:26:44;;;;;;;6.93;5.03;;;;;;;2.59;100.00;102585.16;5026485;28;20050;-77
2024/01/13 05:29:11;;;;;;;10.75;6.50;;;;;;;2.61;100.00;102584.81;5024765;28;20073;-77
2024/01/13 05:31:37;;;;;;;13.05;6.63;;;;;;;2.63;100.00;102577.34;5025446;28;20047;-77
2024/01/13 05:34:04;;;;;;;11.15;7.18;;;;;;;2.62;100.00;102573.19;5028550;28;20058;-77
2024/01/13 05:36:31;;;;;;;12.77;6.65;;;;;;;2.62;100.00;102563.44;5025671;28;20101;-77
2024/01/13 05:38:57;;;;;;;13.23;7.07;;;;;;;2.63;100.00;102549.19;5025659;28;20561;-77
2024/01/13 05:41:24;;;;;;;14.50;7.55;;;;;;;2.62;100.00;102539.78;5024547;28;20042;-78
2024/01/13 05:43:50;;;;;;;12.38;7.32;;;;;;;2.63;100.00;102527.38;5020777;28;20046;-77
2024/01/13 05:46:17;;;;;;;10.70;7.32;;;;;;;2.61;100.00;102522.47;5025609;28;20047;-77
2024/01/13 05:48:43;;;;;;;11.35;6.97;;;;;;;2.61;100.00;102519.06;5022973;28;20574;-77
2024/01/13 05:51:10;;;;;;;11.15;7.72;;;;;;;2.61;100.00;102521.72;5019488;28;20057;-77
2024/01/13 05:53:37;;;;;;;14.73;7.70;;;;;;;2.61;100.00;102534.84;5023160;28;20050;-77
2024/01/13 05:56:06;;;;;;;12.63;8.38;;;;;;;2.62;100.00;102539.78;5014992;28;20074;-77
2024/01/13 05:58:32;;;;;;;14.82;8.82;;;;;;;2.61;100.00;102548.00;5022012;28;20045;-77
2024/01/13 06:00:59;;;;;;;13.75;8.98;;;;;;;2.60;100.00;102565.66;5023228;28;20082;-76
2024/01/13 06:03:25;;;;;;;16.20;9.55;;;;;;;2.60;100.00;102563.00;5019358;28;20051;-76
2024/01/13 06:05:52;;;;;;;17.38;9.68;;;;;;;2.61;100.00;102561.16;5025822;28;20038;-76
2024/01/13 06:08:19;;;;;;;13.20;8.63;;;;;;;2.61;100.00;102543.50;5022165;28;20046;-76
2024/01/13 06:10:46;;;;;;;16.52;9.70;;;;;;;2.63;100.00;102543.16;5022441;28;20050;-76
2024/01/13 06:13:12;;;;;;;14.68;9.35;;;;;;;2.62;100.00;102552.91;5023626;28;20584;-76
2024/01/13 06:15:39;;;;;;;19.20;10.40;;;;;;;2.63;100.00;102549.19;5024959;28;20074;-76
2024/01/13 06:18:06;;;;;;;16.35;9.30;;;;;;;2.64;100.00;102537.56;5019454;28;20070;-76
2024/01/13 06:20:33;;;;;;;16.17;9.73;;;;;;;2.64;100.00;102523.66;5018702;28;20530;-76
2024/01/13 06:23:00;;;;;;;15.02;8.90;;;;;;;2.63;100.00;102496.59;5018699;28;20042;-76
2024/01/13 06:25:26;;;;;;;19.00;9.73;;;;;;;2.64;100.00;102490.25;5022173;28;20054;-76
2024/01/13 06:27:53;;;;;;;14.30;9.32;;;;;;;2.62;100.00;102474.03;5024011;28;20046;-76
2024/01/13 06:30:19;;;;;;;18.45;9.40;;;;;;;2.64;100.00;102463.19;5020086;28;20629;-76
2024/01/13 06:32:46;;;;;;;15.60;10.05;;;;;;;2.64;100.00;102460.56;5023898;28;20653;-76
2024/01/13 06:35:13;;;;;;;15.43;9.85;;;;;;;2.63;100.00;102466.91;5023859;28;20552;-76
2024/01/13 06:37:39;;;;;;;14.40;9.38;;;;;;;2.64;100.00;102453.41;5023355;28;20042;-76
2024/01/13 06:40:08;;;;;;;13.77;9.60;;;;;;;2.64;100.00;102461.31;5020184;28;20042;-76
2024/01/13 06:42:34;;;;;;;15.80;10.07;;;;;;;2.65;100.00;102448.94;5018889;28;20105;-76
2024/01/13 06:45:01;;;;;;;15.93;9.77;;;;;;;2.65;100.00;102441.03;5018758;28;20070;-76
2024/01/13 06:47:28;;;;;;;13.25;9.13;;;;;;;2.63;100.00;102433.50;5015435;28;20125;-76
2024/01/13 06:49:54;;;;;;;15.25;9.32;;;;;;;2.64;100.00;102445.53;5025732;28;20511;-76
2024/01/13 06:52:21;;;;;;;11.05;8.02;;;;;;;2.63;100.00;102444.00;5020248;28;20050;-76
2024/01/13 06:54:48;;;;;;;11.63;8.45;;;;;;;2.65;100.00;102451.56;5024160;28;20050;-76
2024/01/13 06:57:16;;;;;;;16.25;8.80;;;;;;;2.65;100.00;102454.94;5019200;28;20053;-76
2024/01/13 06:59:43;;;;;;;11.93;8.40;;;;;;;2.67;100.00;102451.97;5020973;28;20490;-76
2024/01/13 07:02:10;;;;;;;11.90;7.60;;;;;;;2.67;100.00;102455.38;5022686;28;20046;-76
2024/01/13 07:04:38;;;;;;;11.20;7.40;;;;;;;2.67;100.00;102450.09;5022368;28;20509;-76
2024/01/13 07:07:05;;;;;;;9.43;6.68;;;;;;;2.66;100.00;102453.84;5022207;28;20628;-76
2024/01/13 07:09:32;;;;;;;10.20;6.35;;;;;;;2.67;100.00;102438.81;5020901;28;20046;-76
2024/01/13 07:11:58;;;;;;;8.23;6.38;;;;;;;2.67;100.00;102423.81;5018032;28;20045;-76
2024/01/13 07:14:25;;;;;;;8.55;6.05;;;;;;;2.67;100.00;102410.66;5022100;28;20038;-76
2024/01/13 07:16:53;;;;;;;9.80;6.28;;;;;;;2.68;100.00;102416.69;5020348;28;20503;-76
2024/01/13 07:19:20;;;;;;;8.13;5.88;;;;;;;2.67;100.00;102386.25;5022923;28;20053;-76
2024/01/13 07:21:47;;;;;;;10.05;5.88;;;;;;;2.67;100.00;102368.59;5022113;28;20042;-76
2024/01/13 07:24:13;;;;;;;7.40;5.97;;;;;;;2.66;100.00;102385.47;5023126;28;20053;-76
2024/01/13 07:26:41;;;;;;;8.65;5.68;;;;;;;2.67;100.00;102396.75;5024576;28;20479;-76
2024/01/13 07:29:08;;;;;;;7.72;5.38;;;;;;;2.68;100.00;102393.03;5023040;28;20128;-76
2024/01/13 07:31:34;;;;;;;6.25;5.07;;;;;;;2.68;100.00;102374.59;5017843;28;20068;-76
2024/01/13 07:34:01;;;;;;;6.75;5.05;;;;;;;2.68;100.00;102395.66;5020835;28;20062;-76
2024/01/13 07:36:28;;;;;;;7.05;5.22;;;;;;;2.71;100.00;102412.59;5017297;28;20622;-77
2024/01/13 07:38:55;;;;;;;6.75;5.00;;;;;;;2.72;100.00;102419.38;5018752;28;20066;-76
2024/01/13 07:41:22;;;;;;;7.47;5.80;;;;;;;2.73;100.00;102415.66;5021689;28;20055;-76
2024/01/13 07:43:48;;;;;;;6.80;4.63;;;;;;;2.74;100.00;102415.31;5019937;28;20089;-76
2024/01/13 07:46:15;;;;;;;4.35;3.95;;;;;;;2.75;100.00;102403.69;5019613;28;20457;-77
2024/01/13 07:48:42;;;;;;;4.15;3.75;;;;;;;2.75;100.00;102406.31;5018415;28;20055;-78
2024/01/13 07:51:09;;;;;;;7.53;4.32;;;;;;;2.76;100.00;102401.81;5021232;28;20058;-77
2024/01/13 07:53:50;;;;;;;7.57;4.45;;;;;;;2.76;100.00;102393.94;5025077;28;20823;-78
2024/01/13 07:56:17;;;;;;;4.70;4.20;;;;;;;2.75;100.00;102393.16;5025918;28;20476;-77
2024/01/13 07:58:46;;;;;;;4.90;4.10;;;;;;;2.76;100.00;102396.56;5031826;28;20046;-77
2024/01/13 08:01:12;;;;;;;5.72;4.47;;;;;;;2.76;100.00;102397.31;5031651;28;20069;-77
2024/01/13 08:03:52;;;;;;;4.85;4.40;;;;;;;2.77;100.00;102385.69;5021133;28;20100;-77
2024/01/13 08:06:19;;;;;;;6.20;4.22;;;;;;;2.77;100.00;102385.69;5022579;28;20050;-78
2024/01/13 08:08:46;;;;;;;5.47;4.40;;;;;;;2.77;100.00;102380.44;5020235;28;20039;-78
2024/01/13 08:11:13;;;;;;;4.57;4.18;;;;;;;2.78;100.00;102402.25;5026715;28;20521;-77
2024/01/13 08:13:58;;;;;;;4.82;3.92;;;;;;;2.79;100.00;102401.91;5023349;28;20043;-78
2024/01/13 08:16:24;;;;;;;6.80;4.22;;;;;;;2.81;100.00;102393.63;5020394;28;20050;-77
2024/01/13 08:18:51;;;;;;;6.22;4.55;;;;;;;2.81;100.00;102397.03;5021917;28;20047;-78
2024/01/13 08:21:18;;;;;;;6.05;4.15;;;;;;;2.83;100.00;102394.81;5021196;28;20786;-76
2024/01/13 08:24:03;;;;;;;6.35;4.55;;;;;;;2.83;100.00;102394.03;5020482;28;20042;-74
2024/01/13 08:26:30;;;;;;;6.15;4.80;;;;;;;2.85;100.00;102405.00;5022329;28;20137;-75
2024/01/13 08:28:57;;;;;;;4.75;4.28;;;;;;;2.86;100.00;102393.34;5021837;28;20042;-76
2024/01/13 08:31:23;;;;;;;6.35;4.13;;;;;;;2.86;100.00;102382.84;5020792;28;20042;-75
2024/01/13 08:34:04;;;;;;;7.63;4.15;;;;;;;2.86;100.00;102404.66;5023504;28;20108;-76
2024/01/13 08:36:31;;;;;;;7.65;4.47;;;;;;;2.87;100.00;102385.13;5021550;28;20206;-75
2024/01/13 08:38:58;;;;;;;8.05;4.60;;;;;;;2.88;100.00;102391.16;5021388;28;20547;-75
2024/01/13 08:41:25;;;;;;;5.88;4.65;;;;;;;2.88;100.00;102383.25;5018578;28;20445;-75
2024/01/13 08:43:59;;;;;;;8.95;4.35;;;;;;;2.89;100.00;102387.41;5020080;28;20046;-76
2024/01/13 08:46:26;;;;;;;5.20;4.35;;;;;;;2.88;100.00;102393.78;5017938;28;20047;-75
2024/01/13 08:48:53;;;;;;;7.18;3.92;;;;;;;2.89;100.00;102388.16;5022854;28;20053;-75
2024/01/13 08:51:20;;;;;;;4.35;4.05;;;;;;;2.90;100.00;102394.97;5022558;28;20054;-76
2024/01/13 08:53:59;;;;;;;4.88;4.18;;;;;;;2.90;100.00;102394.97;5025239;28;20049;-77
2024/01/13 08:56:26;;;;;;;5.90;4.63;;;;;;;2.92;100.00;102387.47;5022025;28;20114;-74
2024/01/13 08:58:53;;;;;;;4.65;4.22;;;;;;;2.93;100.00;102390.88;5024830;28;20046;-74
2024/01/13 09:01:19;;;;;;;8.43;7.60;;;;;;;2.93;100.00;102385.63;5025841;28;20066;-74
2024/01/13 09:04:01;;;;;;;10.95;5.93;;;;;;;2.92;100.00;102381.47;5024918;28;20038;-74
2024/01/13 09:06:27;;;;;;;7.22;5.68;;;;;;;2.92;100.00;102387.47;5023538;28;20053;-74
2024/01/13 09:08:54;;;;;;;6.75;4.80;;;;;;;2.92;100.00;102392.75;5024335;28;20048;-75
2024/01/13 09:11:20;;;;;;;6.57;4.95;;;;;;;2.93;100.00;102389.00;5019846;28;20051;-74
2024/01/13 09:14:04;;;;;;;5.25;4.75;;;;;;;2.93;100.00;102382.97;5022356;28;20092;-74
2024/01/13 09:16:31;;;;;;;8.55;7.10;;;;;;;2.93;100.00;102382.97;5022924;28;20051;-74
2024/01/13 09:18:57;;;;;;;8.85;7.28;;;;;;;2.92;100.00;102381.47;5025705;28;20128;-74
2024/01/13 09:21:24;;;;;;;13.43;6.88;;;;;;;2.91;100.00;102378.06;5023435;28;20046;-74
2024/01/13 09:24:06;;;;;;;7.03;5.53;;;;;;;2.90;100.00;102373.91;5023974;28;20552;-74
2024/01/13 09:26:33;;;;;;;12.30;6.10;;;;;;;2.91;100.00;102364.16;5024812;28;20125;-74
2024/01/13 09:29:02;;;;;;;9.43;5.93;;;;;;;2.91;100.00;102358.88;5025375;28;20042;-74
2024/01/13 09:31:29;;;;;;;10.10;7.43;;;;;;;2.90;100.00;102354.72;5022471;28;20518;-75
2024/01/13 09:34:07;;;;;;;5.45;4.95;;;;;;;2.89;100.00;102356.59;5024258;28;20155;-75
2024/01/13 09:36:35;;;;;;;6.72;5.13;;;;;;;2.90;100.00;102360.00;5023962;28;20051;-75
2024/01/13 09:39:01;;;;;;;6.20;5.60;;;;;;;2.88;100.00;102360.34;5021976;28;20113;-74
2024/01/13 09:41:29;;;;;;;8.20;5.53;;;;;;;2.88;100.00;102351.69;5026475;28;20046;-74
2024/01/13 09:44:26;;;;;;;5.07;4.57;;;;;;;2.89;100.00;102351.34;5023923;28;20042;-74
2024/01/13 09:47:00;;;;;;;6.93;4.15;;;;;;;2.90;100.00;102350.22;5017850;28;20046;-74
2024/01/13 09:49:30;;;;;;;8.55;5.45;;;;;;;2.91;100.00;102343.09;5024013;28;20053;-74
2024/01/13 09:52:01;;;;;;;12.02;4.93;;;;;;;2.90;100.00;102341.59;5024790;28;20057;-74
2024/01/13 09:54:29;;;;;;;7.60;5.32;;;;;;;2.89;100.00;102332.94;5024107;28;20049;-74
2024/01/13 09:56:58;;;;;;;6.45;5.28;;;;;;;2.90;100.00;102333.69;5023657;28;20051;-76
2024/01/13 09:59:28;;;;;;;7.82;5.60;;;;;;;2.91;100.00;102341.22;5025344;28;20046;-76
2024/01/13 10:01:57;;;;;;;8.63;5.57;;;;;;;2.92;100.00;102344.63;5022526;28;20778;-78
2024/01/13 10:04:24;;;;;;;7.90;6.18;;;;;;;2.93;100.00;102344.28;5023939;28;20046;-73
2024/01/13 10:06:50;;;;;;;9.00;6.63;;;;;;;2.95;100.00;102341.31;5023650;28;20054;-73
2024/01/13 10:09:17;;;;;;;9.05;7.03;;;;;;;2.97;100.00;102342.47;5022480;28;20105;-75
2024/01/13 10:12:02;;;;;;;9.82;7.97;;;;;;;2.96;100.00;102348.84;5021575;28;20814;-74
2024/01/13 10:14:28;;;;;;;13.73;8.68;;;;;;;2.97;100.00;102345.13;5020481;28;20501;-74
2024/01/13 10:17:02;;;;;;;14.10;8.68;;;;;;;2.98;100.00;102341.38;5020800;28;20129;-74
2024/01/13 10:19:29;;;;;;;11.38;8.43;;;;;;;3.00;100.00;102338.41;5023959;28;20505;-74
2024/01/13 10:21:56;;;;;;;11.20;8.65;;;;;;;3.03;100.00;102345.59;5022307;28;20042;-73
2024/01/13 10:24:23;;;;;;;18.45;9.63;;;;;;;3.04;100.00;102335.84;5024960;28;20120;-74
2024/01/13 10:26:50;;;;;;;14.27;9.77;;;;;;;3.03;100.00;102331.69;5022748;28;20046;-74
2024/01/13 10:29:19;;;;;;;18.40;10.27;;;;;;;3.01;100.00;102330.16;5020785;28;20038;-78
2024/01/13 10:31:50;;;;;;;17.98;10.35;;;;;;;3.00;100.00;102314.72;5018567;28;20046;-74
2024/01/13 10:34:19;;;;;;;;;;;;;;;3.01;100.00;102313.59;5024114;28;20046;-73
2024/01/13 10:36:46;;;;;;;15.73;9.95;;;;;;;2.99;100.00;102308.69;5022564;28;19926;-74
2024/01/13 10:39:13;;;;;;;17.00;10.75;;;;;;;2.98;100.00;102311.66;5024124;28;20057;-79
2024/01/13 10:41:46;;;;;;;22.55;12.45;;;;;;;2.97;100.00;102308.28;5023618;28;20090;-77
2024/01/13 10:44:16;;;;;;;20.15;13.13;;;;;;;2.98;100.00;102309.03;5023801;28;20129;-77
2024/01/13 10:46:49;;;;;;;19.83;12.05;;;;;;;2.97;100.00;102308.28;5022372;28;20044;-77
2024/01/13 10:49:28;;;;;;;18.38;11.93;;;;;;;2.97;100.00;102305.66;5021591;28;20508;-76
2024/01/13 10:51:59;;;;;;;19.95;12.27;;;;;;;3.01;100.00;102308.34;5019341;28;20532;-77
2024/01/13 10:54:29;;;;;;;24.35;13.40;;;;;;;2.98;100.00;102309.81;5021929;28;20046;-77
2024/01/13 10:56:56;;;;;;;18.77;12.63;;;;;;;2.99;100.00;102310.56;5023531;28;20433;-77
2024/01/13 10:59:26;;;;;;;18.90;12.48;;;;;;;2.98;100.00;102307.16;5020510;28;20542;-78
2024/01/13 11:01:56;;;;;;;19.35;13.00;;;;;;;3.01;100.00;102308.34;5020299;28;20051;-76
2024/01/13 11:04:23;;;;;;;22.98;13.20;;;;;;;3.01;100.00;102303.84;5018699;28;20414;-75
2024/01/13 11:06:50;;;;;;;21.88;13.27;;;;;;;3.00;100.00;102299.69;5022851;28;20132;-73
2024/01/13 11:09:18;;;;;;;24.27;13.40;;;;;;;2.98;100.00;102296.66;5018670;28;22726;-75
2024/01/13 11:12:01;;;;;;;24.08;13.98;;;;;;;2.99;100.00;102302.66;5022090;28;20836;-74
2024/01/13 11:14:34;;;;;;;28.77;13.73;;;;;;;2.99;100.00;102300.78;5016192;28;20845;-74
2024/01/13 11:17:02;;;;;;;24.30;14.82;;;;;;;2.99;100.00;102300.03;5021527;28;20501;-74
2024/01/13 11:19:32;;;;;;;23.48;14.30;;;;;;;3.01;100.00;102290.69;5019900;28;20129;-73
2024/01/13 11:21:59;;;;;;;23.80;14.43;;;;;;;3.04;100.00;102277.94;5014950;28;20821;-74
2024/01/13 11:24:26;;;;;;;23.58;15.23;;;;;;;3.06;100.00;102268.59;5020336;28;20042;-74
2024/01/13 11:26:54;;;;;;;29.02;14.95;;;;;;;3.06;100.00;102267.84;5025183;28;20042;-73